Terminal Aerodrome Forecast
Issued by NWS

Home | Current Version | Previous Version | Text Only | Print | Product List | Glossary Off
Versions: 1 2 3 4 5 6 7 8 9 10 11 12 13 14 15 16 17 18

000
FTUS43 KGRB 261724
TAFAUW
TAF
KAUW 261724Z 2618/2718 05005KT 5SM -RADZ BR OVC004
      TEMPO 2618/2622 2SM -RA OVC003
     FM270600 VRB03KT 1SM BR VCSH OVC002
     FM271700 04004KT P6SM OVC003=

USA.gov is the U.S. government's official web portal to all federal, state and local government web resources and services.